AAL4180 KSAN-KPHX
Flight info
| Callsign | AAL4180 |
|---|---|
| Flight time | 0h 55m |
| Altitude | 33000 |
| Route | ZZOOO4 HOGGZ HYDRR1 |
| Aircraft | B772/H-SDE2E3FGHIJ5LORVWXY/LB1D1 |
Departure
| Time | 2026-04-25 04:45 |
|---|---|
| Airport | San Diego International Airport (KSAN) |
Arrival
| Time | 2026-04-25 05:41 |
|---|---|
| Airport | Phoenix Sky Harbor International Airport (KPHX) |
| Time | Latitude | Longitude | Altitude | Speed | Heading |
|---|---|---|---|---|---|
| 2026-04-25 04:01 | 32.73259 | -117.20540 | 20 ft | 0 kts | 161° |
| 2026-04-25 04:30 | 32.73272 | -117.20546 | 28 ft | 2 kts | 158° |
| 2026-04-25 04:31 | 32.73287 | -117.20554 | 28 ft | 2 kts | 154° |
| 2026-04-25 04:31 | 32.73302 | -117.20563 | 27 ft | 2 kts | 149° |
| 2026-04-25 04:31 | 32.73316 | -117.20574 | 27 ft | 2 kts | 141° |
| 2026-04-25 04:31 | 32.73328 | -117.20587 | 26 ft | 2 kts | 129° |
| 2026-04-25 04:32 | 32.73337 | -117.20603 | 26 ft | 2 kts | 112° |
| 2026-04-25 04:32 | 32.73341 | -117.20622 | 26 ft | 2 kts | 92° |
| 2026-04-25 04:32 | 32.73341 | -117.20638 | 26 ft | 1 kts | 86° |
| 2026-04-25 04:32 | 32.73341 | -117.20640 | 26 ft | 0 kts | 87° |
| 2026-04-25 04:36 | 32.73343 | -117.20619 | 27 ft | 6 kts | 83° |
| 2026-04-25 04:37 | 32.73361 | -117.20579 | 27 ft | 6 kts | 40° |
| 2026-04-25 04:37 | 32.73431 | -117.20561 | 30 ft | 11 kts | 5° |
| 2026-04-25 04:37 | 32.73479 | -117.20546 | 30 ft | 11 kts | 31° |
| 2026-04-25 04:37 | 32.73532 | -117.20483 | 28 ft | 11 kts | 46° |
| 2026-04-25 04:38 | 32.73579 | -117.20414 | 27 ft | 11 kts | 62° |
| 2026-04-25 04:38 | 32.73582 | -117.20327 | 26 ft | 11 kts | 104° |
| 2026-04-25 04:38 | 32.73562 | -117.20241 | 29 ft | 11 kts | 105° |
| 2026-04-25 04:38 | 32.73542 | -117.20155 | 30 ft | 11 kts | 106° |
| 2026-04-25 04:39 | 32.73515 | -117.20042 | 30 ft | 19 kts | 106° |
| 2026-04-25 04:39 | 32.73479 | -117.19896 | 31 ft | 16 kts | 106° |
| 2026-04-25 04:39 | 32.73449 | -117.19772 | 31 ft | 16 kts | 106° |
| 2026-04-25 04:39 | 32.73418 | -117.19647 | 31 ft | 16 kts | 106° |
| 2026-04-25 04:40 | 32.73388 | -117.19522 | 32 ft | 16 kts | 106° |
| 2026-04-25 04:40 | 32.73357 | -117.19397 | 30 ft | 16 kts | 106° |
| 2026-04-25 04:40 | 32.73327 | -117.19271 | 28 ft | 17 kts | 105° |
| 2026-04-25 04:40 | 32.73288 | -117.19112 | 30 ft | 21 kts | 106° |
| 2026-04-25 04:41 | 32.73248 | -117.18943 | 31 ft | 21 kts | 106° |
| 2026-04-25 04:41 | 32.73206 | -117.18774 | 37 ft | 21 kts | 106° |
| 2026-04-25 04:41 | 32.73164 | -117.18606 | 37 ft | 21 kts | 107° |
| 2026-04-25 04:41 | 32.73124 | -117.18436 | 35 ft | 21 kts | 105° |
| 2026-04-25 04:42 | 32.73084 | -117.18267 | 35 ft | 21 kts | 106° |
| 2026-04-25 04:42 | 32.73043 | -117.18099 | 31 ft | 21 kts | 106° |
| 2026-04-25 04:42 | 32.73001 | -117.17930 | 32 ft | 21 kts | 107° |
| 2026-04-25 04:42 | 32.72962 | -117.17779 | 35 ft | 12 kts | 107° |
| 2026-04-25 04:43 | 32.72953 | -117.17713 | 34 ft | 5 kts | 86° |
| 2026-04-25 04:43 | 32.72953 | -117.17711 | 34 ft | 0 kts | 85° |
| 2026-04-25 04:43 | 32.72953 | -117.17710 | 33 ft | 1 kts | 85° |
| 2026-04-25 04:43 | 32.72965 | -117.17651 | 32 ft | 11 kts | 67° |
| 2026-04-25 04:44 | 32.73010 | -117.17616 | 34 ft | 1 kts | 358° |
| 2026-04-25 04:44 | 32.73031 | -117.17640 | 34 ft | 8 kts | 305° |
| 2026-04-25 04:44 | 32.73042 | -117.17671 | 34 ft | 0 kts | 285° |
| 2026-04-25 04:44 | 32.73065 | -117.17768 | 33 ft | 52 kts | 285° |
| 2026-04-25 04:45 | 32.73262 | -117.18609 | 40 ft | 153 kts | 285° |
| 2026-04-25 04:45 | 32.73602 | -117.19948 | 617 ft | 177 kts | 285° |
| 2026-04-25 04:45 | 32.73983 | -117.21427 | 1239 ft | 206 kts | 285° |
| 2026-04-25 04:45 | 32.74428 | -117.23194 | 1515 ft | 237 kts | 285° |
| 2026-04-25 04:46 | 32.74863 | -117.25043 | 2641 ft | 225 kts | 284° |
| 2026-04-25 04:46 | 32.75273 | -117.26824 | 3539 ft | 229 kts | 285° |
| 2026-04-25 04:46 | 32.75725 | -117.28653 | 4325 ft | 231 kts | 284° |
| 2026-04-25 04:46 | 32.76156 | -117.30536 | 5130 ft | 234 kts | 283° |
| 2026-04-25 04:47 | 32.76526 | -117.32406 | 5876 ft | 233 kts | 275° |
| 2026-04-25 04:47 | 32.76268 | -117.34286 | 6484 ft | 238 kts | 243° |
| 2026-04-25 04:47 | 32.75107 | -117.35699 | 7279 ft | 241 kts | 212° |
| 2026-04-25 04:47 | 32.73530 | -117.36400 | 7925 ft | 253 kts | 193° |
| 2026-04-25 04:48 | 32.71718 | -117.36319 | 8503 ft | 269 kts | 167° |
| 2026-04-25 04:48 | 32.70073 | -117.35151 | 9109 ft | 289 kts | 136° |
| 2026-04-25 04:48 | 32.68864 | -117.33251 | 9745 ft | 292 kts | 129° |
| 2026-04-25 04:48 | 32.67657 | -117.31287 | 10367 ft | 294 kts | 130° |
| 2026-04-25 04:49 | 32.66407 | -117.29343 | 11015 ft | 300 kts | 133° |
| 2026-04-25 04:49 | 32.65113 | -117.27399 | 11835 ft | 299 kts | 133° |
| 2026-04-25 04:49 | 32.63816 | -117.25473 | 12717 ft | 299 kts | 131° |
| 2026-04-25 04:49 | 32.62904 | -117.23189 | 13282 ft | 323 kts | 104° |
| 2026-04-25 04:50 | 32.62659 | -117.20415 | 13512 ft | 353 kts | 95° |
| 2026-04-25 04:50 | 32.62463 | -117.17393 | 13908 ft | 378 kts | 97° |
| 2026-04-25 04:50 | 32.62203 | -117.14236 | 14657 ft | 389 kts | 98° |
| 2026-04-25 04:50 | 32.61994 | -117.11026 | 15449 ft | 394 kts | 90° |
| 2026-04-25 04:51 | 32.62548 | -117.07819 | 16198 ft | 399 kts | 66° |
| 2026-04-25 04:51 | 32.63663 | -117.04785 | 16961 ft | 406 kts | 65° |
| 2026-04-25 04:51 | 32.64748 | -117.01667 | 17876 ft | 411 kts | 66° |
| 2026-04-25 04:51 | 32.65792 | -116.98490 | 18792 ft | 415 kts | 67° |
| 2026-04-25 04:52 | 32.66708 | -116.95229 | 19522 ft | 419 kts | 78° |
| 2026-04-25 04:52 | 32.66915 | -116.91767 | 20086 ft | 425 kts | 91° |
| 2026-04-25 04:52 | 32.66897 | -116.88228 | 20813 ft | 432 kts | 91° |
| 2026-04-25 04:52 | 32.66913 | -116.84653 | 21708 ft | 435 kts | 90° |
| 2026-04-25 04:53 | 32.66973 | -116.81048 | 22573 ft | 439 kts | 89° |
| 2026-04-25 04:53 | 32.67058 | -116.77410 | 23398 ft | 444 kts | 89° |
| 2026-04-25 04:53 | 32.67140 | -116.73715 | 24077 ft | 450 kts | 90° |
| 2026-04-25 04:53 | 32.67123 | -116.69974 | 24727 ft | 456 kts | 92° |
| 2026-04-25 04:54 | 32.67040 | -116.66189 | 25367 ft | 462 kts | 92° |
| 2026-04-25 04:54 | 32.66945 | -116.62354 | 26019 ft | 468 kts | 92° |
| 2026-04-25 04:54 | 32.66856 | -116.58471 | 26660 ft | 474 kts | 92° |
| 2026-04-25 04:54 | 32.66779 | -116.54546 | 27297 ft | 478 kts | 92° |
| 2026-04-25 04:55 | 32.66712 | -116.50592 | 28006 ft | 482 kts | 92° |
| 2026-04-25 04:55 | 32.66650 | -116.46594 | 28599 ft | 487 kts | 92° |
| 2026-04-25 04:55 | 32.66586 | -116.42555 | 29169 ft | 493 kts | 91° |
| 2026-04-25 04:55 | 32.66720 | -116.38470 | 29750 ft | 498 kts | 85° |
| 2026-04-25 04:56 | 32.67092 | -116.34376 | 30295 ft | 501 kts | 82° |
| 2026-04-25 04:56 | 32.67553 | -116.30257 | 30786 ft | 506 kts | 82° |
| 2026-04-25 04:56 | 32.68016 | -116.26099 | 31242 ft | 510 kts | 83° |
| 2026-04-25 04:56 | 32.68449 | -116.21895 | 31638 ft | 517 kts | 84° |
| 2026-04-25 04:57 | 32.68846 | -116.17656 | 32274 ft | 516 kts | 84° |
| 2026-04-25 04:57 | 32.69222 | -116.13413 | 32816 ft | 518 kts | 85° |
| 2026-04-25 04:57 | 32.69590 | -116.09197 | 32944 ft | 523 kts | 85° |
| 2026-04-25 04:58 | 32.70348 | -116.00634 | 32886 ft | 518 kts | 84° |
| 2026-04-25 04:58 | 32.71132 | -115.92158 | 32913 ft | 517 kts | 84° |
| 2026-04-25 04:59 | 32.71923 | -115.83655 | 32865 ft | 519 kts | 84° |
| 2026-04-25 04:59 | 32.72704 | -115.75129 | 32849 ft | 520 kts | 84° |
| 2026-04-25 05:00 | 32.73477 | -115.66589 | 32826 ft | 520 kts | 84° |
| 2026-04-25 05:00 | 32.74243 | -115.58069 | 32818 ft | 518 kts | 84° |
| 2026-04-25 05:01 | 32.74983 | -115.49563 | 32828 ft | 517 kts | 86° |
| 2026-04-25 05:01 | 32.75280 | -115.41049 | 32813 ft | 515 kts | 91° |
| 2026-04-25 05:02 | 32.75378 | -115.32543 | 32803 ft | 515 kts | 90° |
| 2026-04-25 05:02 | 32.75519 | -115.24048 | 32844 ft | 514 kts | 90° |
| 2026-04-25 05:03 | 32.75703 | -115.15562 | 32843 ft | 514 kts | 90° |
| 2026-04-25 05:03 | 32.75895 | -115.07081 | 32838 ft | 514 kts | 90° |
| 2026-04-25 05:04 | 32.76076 | -114.98598 | 32848 ft | 514 kts | 90° |
| 2026-04-25 05:04 | 32.76249 | -114.90114 | 32820 ft | 514 kts | 90° |
| 2026-04-25 05:05 | 32.76415 | -114.81691 | 32420 ft | 506 kts | 90° |
| 2026-04-25 05:05 | 32.76495 | -114.77530 | 32037 ft | 501 kts | 90° |
| 2026-04-25 05:05 | 32.76573 | -114.73410 | 31656 ft | 497 kts | 90° |
| 2026-04-25 05:05 | 32.76649 | -114.69320 | 31282 ft | 493 kts | 90° |
| 2026-04-25 05:06 | 32.76723 | -114.65266 | 30910 ft | 489 kts | 90° |
| 2026-04-25 05:06 | 32.76795 | -114.61249 | 30542 ft | 485 kts | 90° |
| 2026-04-25 05:06 | 32.76862 | -114.57260 | 30167 ft | 481 kts | 90° |
| 2026-04-25 05:06 | 32.76920 | -114.53304 | 29777 ft | 477 kts | 90° |
| 2026-04-25 05:07 | 32.76975 | -114.49378 | 29322 ft | 474 kts | 90° |
| 2026-04-25 05:07 | 32.77027 | -114.45475 | 28902 ft | 471 kts | 90° |
| 2026-04-25 05:07 | 32.77079 | -114.41597 | 28490 ft | 467 kts | 90° |
| 2026-04-25 05:07 | 32.77129 | -114.37756 | 28109 ft | 464 kts | 90° |
| 2026-04-25 05:08 | 32.77179 | -114.33935 | 27625 ft | 461 kts | 90° |
| 2026-04-25 05:08 | 32.77227 | -114.30137 | 27253 ft | 458 kts | 90° |
| 2026-04-25 05:08 | 32.77274 | -114.26411 | 26860 ft | 456 kts | 90° |
| 2026-04-25 05:08 | 32.77320 | -114.22660 | 26456 ft | 453 kts | 90° |
| 2026-04-25 05:09 | 32.77364 | -114.18925 | 26072 ft | 451 kts | 90° |
| 2026-04-25 05:09 | 32.77407 | -114.15208 | 25677 ft | 449 kts | 90° |
| 2026-04-25 05:09 | 32.77449 | -114.11521 | 25286 ft | 447 kts | 90° |
| 2026-04-25 05:09 | 32.77491 | -114.07828 | 24919 ft | 444 kts | 90° |
| 2026-04-25 05:10 | 32.77641 | -114.04198 | 24786 ft | 433 kts | 84° |
| 2026-04-25 05:10 | 32.78007 | -114.00692 | 24784 ft | 426 kts | 81° |
| 2026-04-25 05:10 | 32.78448 | -113.97211 | 24778 ft | 425 kts | 81° |
| 2026-04-25 05:10 | 32.78891 | -113.93739 | 24777 ft | 425 kts | 81° |
| 2026-04-25 05:11 | 32.79311 | -113.90263 | 24786 ft | 426 kts | 82° |
| 2026-04-25 05:11 | 32.79710 | -113.86775 | 24781 ft | 426 kts | 82° |
| 2026-04-25 05:11 | 32.80094 | -113.83279 | 24784 ft | 427 kts | 82° |
| 2026-04-25 05:12 | 32.80851 | -113.76265 | 24780 ft | 428 kts | 82° |
| 2026-04-25 05:12 | 32.81229 | -113.72756 | 24771 ft | 428 kts | 82° |
| 2026-04-25 05:12 | 32.81877 | -113.69341 | 24766 ft | 421 kts | 65° |
| 2026-04-25 05:12 | 32.83318 | -113.66337 | 24537 ft | 418 kts | 45° |
| 2026-04-25 05:13 | 32.85263 | -113.63787 | 24221 ft | 416 kts | 42° |
| 2026-04-25 05:13 | 32.87217 | -113.61257 | 23887 ft | 414 kts | 43° |
| 2026-04-25 05:13 | 32.89137 | -113.58733 | 23580 ft | 409 kts | 43° |
| 2026-04-25 05:13 | 32.91023 | -113.56223 | 23263 ft | 405 kts | 43° |
| 2026-04-25 05:14 | 32.92881 | -113.53732 | 22912 ft | 400 kts | 43° |
| 2026-04-25 05:14 | 32.94714 | -113.51265 | 22622 ft | 395 kts | 43° |
| 2026-04-25 05:14 | 32.96503 | -113.48852 | 22312 ft | 392 kts | 43° |
| 2026-04-25 05:15 | 33.00073 | -113.44032 | 21711 ft | 385 kts | 44° |
| 2026-04-25 05:15 | 33.01843 | -113.41641 | 21434 ft | 385 kts | 44° |
| 2026-04-25 05:15 | 33.03623 | -113.39237 | 21155 ft | 388 kts | 44° |
| 2026-04-25 05:15 | 33.05415 | -113.36814 | 20875 ft | 391 kts | 44° |
| 2026-04-25 05:16 | 33.07210 | -113.34387 | 20574 ft | 390 kts | 44° |
| 2026-04-25 05:16 | 33.08999 | -113.31968 | 20284 ft | 388 kts | 44° |
| 2026-04-25 05:16 | 33.10784 | -113.29556 | 19994 ft | 387 kts | 44° |
| 2026-04-25 05:16 | 33.12557 | -113.27157 | 19705 ft | 385 kts | 44° |
| 2026-04-25 05:17 | 33.14320 | -113.24770 | 19419 ft | 383 kts | 44° |
| 2026-04-25 05:17 | 33.16079 | -113.22387 | 19135 ft | 381 kts | 44° |
| 2026-04-25 05:17 | 33.17820 | -113.20026 | 18850 ft | 378 kts | 44° |
| 2026-04-25 05:17 | 33.19552 | -113.17677 | 18567 ft | 376 kts | 44° |
| 2026-04-25 05:18 | 33.21278 | -113.15333 | 18287 ft | 374 kts | 45° |
| 2026-04-25 05:18 | 33.22990 | -113.13009 | 17994 ft | 372 kts | 45° |
| 2026-04-25 05:18 | 33.24690 | -113.10698 | 17663 ft | 369 kts | 44° |
| 2026-04-25 05:18 | 33.26335 | -113.08382 | 17382 ft | 361 kts | 52° |
| 2026-04-25 05:19 | 33.27380 | -113.05655 | 17237 ft | 363 kts | 76° |
| 2026-04-25 05:19 | 33.27655 | -113.02643 | 17044 ft | 368 kts | 90° |
| 2026-04-25 05:19 | 33.27701 | -112.99569 | 16776 ft | 372 kts | 91° |
| 2026-04-25 05:19 | 33.27741 | -112.96493 | 16496 ft | 368 kts | 91° |
| 2026-04-25 05:20 | 33.27790 | -112.93456 | 16221 ft | 362 kts | 90° |
| 2026-04-25 05:20 | 33.27851 | -112.90466 | 15956 ft | 357 kts | 90° |
| 2026-04-25 05:20 | 33.27919 | -112.87557 | 15705 ft | 354 kts | 90° |
| 2026-04-25 05:20 | 33.27990 | -112.84625 | 15448 ft | 352 kts | 90° |
| 2026-04-25 05:21 | 33.28068 | -112.81718 | 15193 ft | 349 kts | 88° |
| 2026-04-25 05:21 | 33.28272 | -112.78828 | 14938 ft | 348 kts | 85° |
| 2026-04-25 05:21 | 33.28554 | -112.75971 | 14686 ft | 346 kts | 84° |
| 2026-04-25 05:21 | 33.28848 | -112.73130 | 14436 ft | 344 kts | 84° |
| 2026-04-25 05:22 | 33.29137 | -112.70299 | 14179 ft | 342 kts | 84° |
| 2026-04-25 05:22 | 33.29417 | -112.67479 | 13926 ft | 341 kts | 84° |
| 2026-04-25 05:22 | 33.29688 | -112.64676 | 13677 ft | 338 kts | 85° |
| 2026-04-25 05:22 | 33.29952 | -112.61902 | 13396 ft | 335 kts | 85° |
| 2026-04-25 05:23 | 33.30211 | -112.59142 | 13127 ft | 334 kts | 85° |
| 2026-04-25 05:23 | 33.30467 | -112.56391 | 12868 ft | 332 kts | 85° |
| 2026-04-25 05:23 | 33.30721 | -112.53648 | 12613 ft | 331 kts | 85° |
| 2026-04-25 05:23 | 33.30973 | -112.50923 | 12357 ft | 329 kts | 85° |
| 2026-04-25 05:24 | 33.31139 | -112.49124 | 12144 ft | 328 kts | 85° |
| 2026-04-25 05:24 | 33.31388 | -112.46424 | 11905 ft | 326 kts | 85° |
| 2026-04-25 05:24 | 33.31634 | -112.43745 | 11657 ft | 324 kts | 85° |
| 2026-04-25 05:24 | 33.31879 | -112.41074 | 11418 ft | 321 kts | 85° |
| 2026-04-25 05:25 | 33.32120 | -112.38430 | 11177 ft | 319 kts | 85° |
| 2026-04-25 05:25 | 33.32360 | -112.35807 | 10946 ft | 316 kts | 85° |
| 2026-04-25 05:25 | 33.32596 | -112.33209 | 10741 ft | 312 kts | 85° |
| 2026-04-25 05:25 | 33.32830 | -112.30646 | 10553 ft | 308 kts | 85° |
| 2026-04-25 05:26 | 33.33062 | -112.28112 | 10360 ft | 305 kts | 85° |
| 2026-04-25 05:26 | 33.33292 | -112.25597 | 10176 ft | 303 kts | 85° |
| 2026-04-25 05:26 | 33.33518 | -112.23105 | 9984 ft | 298 kts | 85° |
| 2026-04-25 05:26 | 33.33740 | -112.20667 | 9771 ft | 293 kts | 85° |
| 2026-04-25 05:27 | 33.33961 | -112.18258 | 9514 ft | 290 kts | 85° |
| 2026-04-25 05:27 | 33.34181 | -112.15864 | 9171 ft | 289 kts | 85° |
| 2026-04-25 05:27 | 33.34395 | -112.13508 | 8724 ft | 284 kts | 85° |
| 2026-04-25 05:27 | 33.34612 | -112.11148 | 8060 ft | 285 kts | 86° |
| 2026-04-25 05:28 | 33.34833 | -112.08804 | 7474 ft | 283 kts | 85° |
| 2026-04-25 05:28 | 33.35048 | -112.06463 | 7139 ft | 289 kts | 85° |
| 2026-04-25 05:28 | 33.35260 | -112.04050 | 6791 ft | 289 kts | 85° |
| 2026-04-25 05:28 | 33.35460 | -112.01720 | 6507 ft | 276 kts | 85° |
| 2026-04-25 05:29 | 33.35645 | -111.99443 | 6296 ft | 275 kts | 85° |
| 2026-04-25 05:29 | 33.35827 | -111.97130 | 6083 ft | 284 kts | 85° |
| 2026-04-25 05:29 | 33.36028 | -111.94782 | 5847 ft | 282 kts | 85° |
| 2026-04-25 05:29 | 33.36237 | -111.92466 | 5619 ft | 277 kts | 85° |
| 2026-04-25 05:30 | 33.36443 | -111.90195 | 5414 ft | 272 kts | 84° |
| 2026-04-25 05:30 | 33.36587 | -111.87963 | 5236 ft | 266 kts | 90° |
| 2026-04-25 05:30 | 33.36600 | -111.85792 | 5184 ft | 258 kts | 91° |
| 2026-04-25 05:30 | 33.36594 | -111.83632 | 4983 ft | 257 kts | 91° |
| 2026-04-25 05:31 | 33.36587 | -111.81522 | 5004 ft | 251 kts | 91° |
| 2026-04-25 05:31 | 33.36577 | -111.79434 | 4987 ft | 252 kts | 91° |
| 2026-04-25 05:31 | 33.36561 | -111.77316 | 4787 ft | 257 kts | 91° |
| 2026-04-25 05:31 | 33.36541 | -111.75180 | 4679 ft | 256 kts | 91° |
| 2026-04-25 05:32 | 33.36518 | -111.73076 | 4655 ft | 250 kts | 91° |
| 2026-04-25 05:32 | 33.36492 | -111.71034 | 4576 ft | 248 kts | 92° |
| 2026-04-25 05:32 | 33.36468 | -111.68940 | 4433 ft | 247 kts | 91° |
| 2026-04-25 05:32 | 33.36766 | -111.66944 | 4217 ft | 246 kts | 63° |
| 2026-04-25 05:33 | 33.37846 | -111.65433 | 4129 ft | 238 kts | 29° |
| 2026-04-25 05:33 | 33.39380 | -111.64807 | 4068 ft | 233 kts | 4° |
| 2026-04-25 05:33 | 33.40992 | -111.64641 | 4030 ft | 232 kts | 358° |
| 2026-04-25 05:33 | 33.42542 | -111.65000 | 4023 ft | 231 kts | 327° |
| 2026-04-25 05:34 | 33.43622 | -111.66310 | 4011 ft | 218 kts | 292° |
| 2026-04-25 05:34 | 33.43967 | -111.68023 | 4018 ft | 214 kts | 273° |
| 2026-04-25 05:34 | 33.44012 | -111.69806 | 4033 ft | 215 kts | 269° |
| 2026-04-25 05:34 | 33.44014 | -111.71600 | 4021 ft | 216 kts | 269° |
| 2026-04-25 05:35 | 33.44015 | -111.73384 | 4006 ft | 211 kts | 269° |
| 2026-04-25 05:35 | 33.44020 | -111.75109 | 4006 ft | 205 kts | 270° |
| 2026-04-25 05:35 | 33.44042 | -111.76796 | 3998 ft | 197 kts | 270° |
| 2026-04-25 05:35 | 33.44055 | -111.78375 | 3996 ft | 184 kts | 269° |
| 2026-04-25 05:36 | 33.44059 | -111.79891 | 4049 ft | 179 kts | 269° |
| 2026-04-25 05:36 | 33.44062 | -111.81330 | 3990 ft | 168 kts | 268° |
| 2026-04-25 05:36 | 33.44063 | -111.82691 | 3782 ft | 159 kts | 268° |
| 2026-04-25 05:36 | 33.44064 | -111.83988 | 3580 ft | 151 kts | 268° |
| 2026-04-25 05:37 | 33.44066 | -111.85206 | 3379 ft | 143 kts | 268° |
| 2026-04-25 05:37 | 33.44067 | -111.86382 | 3225 ft | 140 kts | 268° |
| 2026-04-25 05:37 | 33.44069 | -111.87500 | 3036 ft | 128 kts | 268° |
| 2026-04-25 05:37 | 33.44070 | -111.88543 | 2882 ft | 125 kts | 268° |
| 2026-04-25 05:38 | 33.44071 | -111.89561 | 2709 ft | 120 kts | 267° |
| 2026-04-25 05:38 | 33.44071 | -111.90564 | 2556 ft | 121 kts | 268° |
| 2026-04-25 05:38 | 33.44073 | -111.91573 | 2400 ft | 121 kts | 266° |
| 2026-04-25 05:38 | 33.44073 | -111.92576 | 2250 ft | 123 kts | 267° |
| 2026-04-25 05:39 | 33.44072 | -111.93637 | 2105 ft | 130 kts | 268° |
| 2026-04-25 05:39 | 33.44049 | -111.94724 | 1905 ft | 131 kts | 269° |
| 2026-04-25 05:39 | 33.44078 | -111.95822 | 1715 ft | 132 kts | 269° |
| 2026-04-25 05:39 | 33.44075 | -111.96912 | 1497 ft | 132 kts | 271° |
| 2026-04-25 05:40 | 33.44080 | -111.98036 | 1437 ft | 136 kts | 269° |
| 2026-04-25 05:40 | 33.44077 | -111.99158 | 1222 ft | 134 kts | 269° |
| 2026-04-25 05:40 | 33.44079 | -112.00229 | 1141 ft | 117 kts | 271° |
| 2026-04-25 05:40 | 33.44083 | -112.01042 | 1137 ft | 77 kts | 270° |
| 2026-04-25 05:41 | 33.44084 | -112.01521 | 1136 ft | 29 kts | 270° |
| 2026-04-25 05:41 | 33.44071 | -112.01651 | 1138 ft | 14 kts | 247° |
| 2026-04-25 05:41 | 33.43990 | -112.01657 | 1139 ft | 15 kts | 118° |
| 2026-04-25 05:41 | 33.43977 | -112.01579 | 1139 ft | 0 kts | 92° |
| 2026-04-25 05:43 | 33.43977 | -112.01568 | 1138 ft | 8 kts | 92° |
| 2026-04-25 05:43 | 33.43973 | -112.01496 | 1138 ft | 9 kts | 100° |
| 2026-04-25 05:43 | 33.43938 | -112.01441 | 1137 ft | 9 kts | 142° |
| 2026-04-25 05:43 | 33.43906 | -112.01383 | 1138 ft | 9 kts | 101° |
| 2026-04-25 05:44 | 33.43902 | -112.01304 | 1135 ft | 12 kts | 90° |
| 2026-04-25 05:44 | 33.43902 | -112.01173 | 1135 ft | 17 kts | 90° |
| 2026-04-25 05:44 | 33.43902 | -112.01031 | 1135 ft | 17 kts | 90° |
| 2026-04-25 05:44 | 33.43901 | -112.00888 | 1135 ft | 17 kts | 90° |
| 2026-04-25 05:45 | 33.43901 | -112.00746 | 1135 ft | 17 kts | 90° |
| 2026-04-25 05:45 | 33.43901 | -112.00604 | 1135 ft | 17 kts | 90° |
| 2026-04-25 05:45 | 33.43903 | -112.00462 | 1135 ft | 17 kts | 88° |
| 2026-04-25 05:45 | 33.43905 | -112.00319 | 1135 ft | 17 kts | 90° |
| 2026-04-25 05:46 | 33.43905 | -112.00177 | 1135 ft | 17 kts | 90° |
| 2026-04-25 05:46 | 33.43905 | -112.00035 | 1135 ft | 17 kts | 90° |
| 2026-04-25 05:46 | 33.43904 | -111.99893 | 1136 ft | 17 kts | 90° |
| 2026-04-25 05:46 | 33.43904 | -111.99751 | 1136 ft | 17 kts | 90° |
| 2026-04-25 05:47 | 33.43904 | -111.99646 | 1136 ft | 9 kts | 90° |
| 2026-04-25 05:47 | 33.43903 | -111.99629 | 1136 ft | 4 kts | 94° |
| 2026-04-25 05:47 | 33.43868 | -111.99583 | 1139 ft | 9 kts | 148° |
| 2026-04-25 05:47 | 33.43823 | -111.99521 | 1141 ft | 11 kts | 130° |
| 2026-04-25 05:48 | 33.43799 | -111.99492 | 1140 ft | 0 kts | 137° |